Time;durP1;ratioP1;P1;durP2;ratioP2;P2;SDS_P1;SDS_P2;PMS_P1;PMS_P2;Temp;Humidity;BMP_temperature;BMP_pressure;BME280_temperature;BME280_humidity;BME280_pressure;Samples;Min_cycle;Max_cycle;Signal;HPM_P1;HPM_P2
2021/01/21 00:01:47;;;;;;;29.83;18.63;;;2.80;99.90;;;;;;5093105;28;20048;-66
2021/01/21 00:04:14;;;;;;;27.27;17.67;;;2.80;99.90;;;;;;5093066;28;20036;-66
2021/01/21 00:06:40;;;;;;;23.33;14.60;;;2.70;99.90;;;;;;5092986;28;20131;-66
2021/01/21 00:09:07;;;;;;;26.73;14.60;;;2.80;99.90;;;;;;5092120;28;20036;-66
2021/01/21 00:11:34;;;;;;;25.23;14.50;;;2.80;99.90;;;;;;5092793;28;20040;-66
2021/01/21 00:14:01;;;;;;;18.65;13.43;;;2.80;99.90;;;;;;5090505;28;20051;-66
2021/01/21 00:16:27;;;;;;;21.77;14.13;;;2.80;99.90;;;;;;5088656;28;20044;-66
2021/01/21 00:18:54;;;;;;;20.60;13.35;;;2.90;99.90;;;;;;5092410;28;20051;-66
2021/01/21 00:21:20;;;;;;;20.25;13.30;;;2.90;99.90;;;;;;5086457;28;20055;-66
2021/01/21 00:23:47;;;;;;;22.25;14.23;;;3.00;99.90;;;;;;5092514;28;20047;-66
2021/01/21 00:26:13;;;;;;;20.60;13.52;;;3.00;99.90;;;;;;5087767;28;20043;-66
2021/01/21 00:28:40;;;;;;;20.58;13.25;;;3.00;99.90;;;;;;5090425;28;20458;-66
2021/01/21 00:31:06;;;;;;;21.02;13.55;;;3.10;99.90;;;;;;5089874;28;20474;-67
2021/01/21 00:33:33;;;;;;;19.17;12.98;;;3.10;99.90;;;;;;5088655;28;20060;-67
2021/01/21 00:35:59;;;;;;;19.35;12.73;;;3.10;99.90;;;;;;5091321;28;20052;-67
2021/01/21 00:38:26;;;;;;;20.67;12.30;;;3.20;99.90;;;;;;5092587;28;20401;-67
2021/01/21 00:40:52;;;;;;;17.35;12.63;;;3.10;99.90;;;;;;5090777;28;20056;-66
2021/01/21 00:43:19;;;;;;;18.67;12.25;;;3.10;99.90;;;;;;5092233;28;20043;-66
2021/01/21 00:45:45;;;;;;;17.35;12.82;;;3.10;99.90;;;;;;5092350;28;20044;-67
2021/01/21 00:48:12;;;;;;;20.45;12.98;;;3.10;99.90;;;;;;5091951;28;20379;-67
2021/01/21 00:50:38;;;;;;;23.45;13.75;;;3.20;99.90;;;;;;5092425;28;20051;-67
2021/01/21 00:53:09;;;;;;;21.13;12.38;;;3.10;99.90;;;;;;5091755;28;20048;-66
2021/01/21 00:55:36;;;;;;;20.65;12.40;;;3.20;99.90;;;;;;5092212;28;20051;-66
2021/01/21 00:58:03;;;;;;;18.23;11.65;;;3.10;99.90;;;;;;5091336;28;20062;-66
2021/01/21 01:00:30;;;;;;;18.73;12.27;;;3.10;99.90;;;;;;5092409;28;20070;-66
2021/01/21 01:02:56;;;;;;;16.88;11.88;;;3.10;99.90;;;;;;5083404;28;20053;-67
2021/01/21 01:05:23;;;;;;;17.92;11.32;;;3.10;99.90;;;;;;5091991;28;20048;-66
2021/01/21 01:07:49;;;;;;;19.02;11.60;;;3.20;99.90;;;;;;5091485;28;20421;-66
2021/01/21 01:10:17;;;;;;;17.80;12.48;;;3.10;99.90;;;;;;5091731;28;20123;-67
2021/01/21 01:12:43;;;;;;;17.52;11.90;;;3.10;99.90;;;;;;5090247;28;20044;-67
2021/01/21 01:15:10;;;;;;;17.27;11.23;;;3.20;99.90;;;;;;5084802;28;20051;-67
2021/01/21 01:17:37;;;;;;;17.55;11.52;;;3.20;99.90;;;;;;5091094;28;20062;-67
2021/01/21 01:20:04;;;;;;;17.98;11.63;;;3.20;99.90;;;;;;5085123;28;20075;-67
2021/01/21 01:22:31;;;;;;;17.90;12.30;;;3.20;99.90;;;;;;5073182;28;20052;-66
2021/01/21 01:24:57;;;;;;;20.88;12.23;;;3.20;99.90;;;;;;5091843;28;20517;-66
2021/01/21 01:27:24;;;;;;;18.58;11.70;;;3.20;99.90;;;;;;5084390;28;20040;-66
2021/01/21 01:29:51;;;;;;;20.67;11.38;;;3.20;99.90;;;;;;5090482;28;20048;-66
2021/01/21 01:32:18;;;;;;;17.27;11.70;;;3.20;99.90;;;;;;5090665;28;20044;-66
2021/01/21 01:34:44;;;;;;;17.30;12.05;;;3.20;99.90;;;;;;5089524;28;20131;-66
2021/01/21 01:37:11;;;;;;;18.25;11.35;;;3.20;99.90;;;;;;5090980;28;20050;-66
2021/01/21 01:39:37;;;;;;;17.92;11.77;;;3.20;99.90;;;;;;5091059;28;20048;-66
2021/01/21 01:42:10;;;;;;;17.02;12.20;;;3.30;99.90;;;;;;5089076;28;20063;-66
2021/01/21 01:44:38;;;;;;;18.60;11.30;;;3.30;99.90;;;;;;5091069;28;20044;-66
2021/01/21 01:47:04;;;;;;;17.52;12.00;;;3.30;99.90;;;;;;5090599;28;20048;-66
2021/01/21 01:49:33;;;;;;;18.35;11.93;;;3.30;99.90;;;;;;5091343;28;20060;-66
2021/01/21 01:52:02;;;;;;;18.60;11.80;;;3.20;99.90;;;;;;5090973;28;20052;-66
2021/01/21 01:54:29;;;;;;;19.38;12.52;;;3.30;99.90;;;;;;5090827;28;20474;-66
2021/01/21 01:56:58;;;;;;;19.48;12.13;;;3.20;99.90;;;;;;5089777;28;20055;-66
2021/01/21 01:59:25;;;;;;;20.17;12.32;;;3.20;99.90;;;;;;5085723;28;20485;-66
2021/01/21 02:01:52;;;;;;;21.20;13.10;;;3.10;99.90;;;;;;5091040;28;20048;-66
2021/01/21 02:04:20;;;;;;;17.65;11.40;;;3.10;99.90;;;;;;5091107;28;20413;-66
2021/01/21 02:06:49;;;;;;;24.10;13.88;;;3.00;99.90;;;;;;5082379;28;20044;-66
2021/01/21 02:09:16;;;;;;;20.50;13.07;;;3.00;99.90;;;;;;5090662;28;20043;-66
2021/01/21 02:11:54;;;;;;;19.83;13.00;;;2.90;99.90;;;;;;5078624;28;20256;-66
2021/01/21 02:14:27;;;;;;;18.27;12.77;;;2.90;99.90;;;;;;5090752;28;20059;-66
2021/01/21 02:17:05;;;;;;;18.27;12.15;;;2.90;99.90;;;;;;5089555;28;20044;-67
2021/01/21 02:20:06;;;;;;;17.65;12.18;;;2.90;99.90;;;;;;5091109;28;20093;-66
2021/01/21 02:22:39;;;;;;;19.00;12.18;;;2.90;99.90;;;;;;5090948;28;20066;-66
2021/01/21 02:25:15;;;;;;;20.10;12.43;;;2.90;99.90;;;;;;5094222;28;20048;-66
2021/01/21 02:28:08;;;;;;;18.60;12.40;;;3.00;99.90;;;;;;5094808;28;20060;-66
2021/01/21 02:30:49;;;;;;;20.67;12.52;;;3.00;99.90;;;;;;5078876;28;20394;-66
2021/01/21 02:33:52;;;;;;;19.80;12.13;;;3.00;99.90;;;;;;5069432;28;20052;-66
2021/01/21 02:36:23;;;;;;;20.50;12.90;;;3.00;99.90;;;;;;5085026;28;20063;-66
2021/01/21 02:38:52;;;;;;;19.40;12.10;;;3.10;99.90;;;;;;5093486;28;20039;-66
2021/01/21 02:41:20;;;;;;;17.25;11.05;;;3.10;99.90;;;;;;5093582;28;20040;-66
2021/01/21 02:43:53;;;;;;;19.83;11.73;;;3.10;99.90;;;;;;5094623;28;20044;-66
2021/01/21 02:46:21;;;;;;;21.33;13.30;;;3.20;99.90;;;;;;5094638;28;20789;-66
2021/01/21 02:48:51;;;;;;;22.27;12.50;;;3.20;99.90;;;;;;5094940;28;20067;-66
2021/01/21 02:51:22;;;;;;;18.40;12.43;;;3.20;99.90;;;;;;5093852;28;20130;-66
2021/01/21 02:54:15;;;;;;;18.95;11.93;;;3.20;99.90;;;;;;5093704;28;20497;-66
2021/01/21 02:56:43;;;;;;;26.23;15.48;;;3.20;99.90;;;;;;5080210;28;20052;-66
2021/01/21 02:59:15;;;;;;;18.30;11.98;;;3.20;99.90;;;;;;5093565;28;20044;-66
2021/01/21 03:01:46;;;;;;;21.00;12.85;;;3.30;99.90;;;;;;5094079;28;20151;-66
2021/01/21 03:04:14;;;;;;;20.67;12.82;;;3.30;99.90;;;;;;5093474;28;20147;-66
2021/01/21 03:06:43;;;;;;;20.42;11.35;;;3.30;99.90;;;;;;5093943;28;20040;-66
2021/01/21 03:09:09;;;;;;;19.52;11.73;;;3.40;99.90;;;;;;5093960;28;20114;-66
2021/01/21 03:11:36;;;;;;;19.92;11.73;;;3.40;99.90;;;;;;5093740;28;20048;-66
2021/01/21 03:14:04;;;;;;;19.67;12.00;;;3.40;99.90;;;;;;5091672;28;20056;-66
2021/01/21 03:16:30;;;;;;;17.27;12.20;;;3.50;99.90;;;;;;5092156;28;20071;-66
2021/01/21 03:18:57;;;;;;;14.90;10.73;;;3.50;99.90;;;;;;5093079;28;20395;-66
2021/01/21 03:21:24;;;;;;;18.13;11.27;;;3.50;99.90;;;;;;5094308;28;20055;-66
2021/01/21 03:23:50;;;;;;;18.30;11.57;;;3.50;99.90;;;;;;5093607;28;20040;-66
2021/01/21 03:26:16;;;;;;;15.80;11.32;;;3.60;99.90;;;;;;5093848;28;20051;-66
2021/01/21 03:28:43;;;;;;;17.17;10.80;;;3.60;99.90;;;;;;5092924;28;20048;-66
2021/01/21 03:31:09;;;;;;;17.00;11.02;;;3.60;99.90;;;;;;5090825;28;20490;-66
2021/01/21 03:33:36;;;;;;;17.27;11.07;;;3.60;99.90;;;;;;5074839;28;20658;-66
2021/01/21 03:36:03;;;;;;;17.20;10.05;;;3.60;99.90;;;;;;5090714;28;20059;-66
2021/01/21 03:38:30;;;;;;;17.40;10.63;;;3.60;99.90;;;;;;5093574;28;20048;-66
2021/01/21 03:41:00;;;;;;;21.70;13.18;;;3.70;99.90;;;;;;5092189;28;20123;-66
2021/01/21 03:43:27;;;;;;;18.60;10.60;;;3.70;99.90;;;;;;5093515;28;20054;-66
2021/01/21 03:45:53;;;;;;;15.80;10.43;;;3.70;99.90;;;;;;5093686;28;20047;-66
2021/01/21 03:48:19;;;;;;;16.10;10.80;;;3.70;99.90;;;;;;5074445;28;20048;-66
2021/01/21 03:50:49;;;;;;;16.02;10.95;;;3.80;99.90;;;;;;5093542;28;20048;-66
2021/01/21 03:53:16;;;;;;;17.13;10.60;;;3.70;99.90;;;;;;5093193;28;20050;-66
2021/01/21 03:55:42;;;;;;;14.10;9.88;;;3.80;99.90;;;;;;5092345;28;20409;-66
2021/01/21 03:58:08;;;;;;;15.32;10.20;;;3.70;99.90;;;;;;5092937;28;20040;-66
2021/01/21 04:00:35;;;;;;;17.02;10.35;;;3.70;99.90;;;;;;5074375;28;20046;-66
2021/01/21 04:03:01;;;;;;;17.52;11.50;;;3.80;99.90;;;;;;5079561;28;20051;-66
2021/01/21 04:05:28;;;;;;;15.00;9.75;;;3.80;99.90;;;;;;5093160;28;20048;-66
2021/01/21 04:07:54;;;;;;;14.48;9.82;;;3.70;99.90;;;;;;5092122;28;20064;-66
2021/01/21 04:10:21;;;;;;;15.43;10.77;;;3.70;99.90;;;;;;5090040;28;20060;-66
2021/01/21 04:12:47;;;;;;;16.42;10.48;;;3.80;99.90;;;;;;5084815;28;20048;-66
2021/01/21 04:15:14;;;;;;;15.27;10.52;;;3.70;99.90;;;;;;5092791;28;20055;-66
2021/01/21 04:17:40;;;;;;;15.13;10.52;;;3.70;99.90;;;;;;5091601;28;20044;-66
2021/01/21 04:20:07;;;;;;;13.27;9.50;;;3.70;99.90;;;;;;5092675;28;20044;-66
2021/01/21 04:22:33;;;;;;;13.90;9.35;;;3.80;99.90;;;;;;5092497;28;20071;-66
2021/01/21 04:25:01;;;;;;;13.45;10.07;;;3.80;99.90;;;;;;5091392;28;20050;-66
2021/01/21 04:27:27;;;;;;;16.50;10.23;;;3.80;99.90;;;;;;5092595;28;20040;-66
2021/01/21 04:30:10;;;;;;;14.93;9.13;;;3.80;99.90;;;;;;5092245;28;20449;-66
2021/01/21 04:32:37;;;;;;;15.27;9.20;;;3.80;99.90;;;;;;5091371;28;20043;-66
2021/01/21 04:35:04;;;;;;;15.13;9.65;;;3.90;99.90;;;;;;5092324;28;20043;-67
2021/01/21 04:37:31;;;;;;;14.25;9.45;;;3.90;99.90;;;;;;5090162;28;20048;-66
2021/01/21 04:39:57;;;;;;;13.48;9.32;;;3.90;99.90;;;;;;5092432;28;20055;-67
2021/01/21 04:42:24;;;;;;;13.25;9.18;;;4.00;99.90;;;;;;5090388;28;20059;-67
2021/01/21 04:45:05;;;;;;;12.98;9.30;;;4.00;99.90;;;;;;5080967;28;20493;-67
2021/01/21 04:47:32;;;;;;;14.32;9.38;;;4.00;99.90;;;;;;5091927;28;20044;-67
2021/01/21 04:50:00;;;;;;;13.73;9.07;;;4.00;99.90;;;;;;5092696;28;20038;-67
2021/01/21 04:52:28;;;;;;;14.20;9.15;;;4.00;99.90;;;;;;5092174;28;20050;-67
2021/01/21 04:55:01;;;;;;;16.02;8.48;;;4.00;99.90;;;;;;5092405;28;20052;-67
2021/01/21 04:57:41;;;;;;;13.85;9.30;;;4.00;99.90;;;;;;5091621;28;20051;-67
2021/01/21 05:00:08;;;;;;;13.88;8.80;;;4.10;99.90;;;;;;5084560;28;20040;-66
2021/01/21 05:02:40;;;;;;;13.05;8.52;;;4.10;99.90;;;;;;5085913;28;20158;-67
2021/01/21 05:05:11;;;;;;;12.60;8.18;;;4.20;99.90;;;;;;5077664;28;20048;-68
2021/01/21 05:07:39;;;;;;;13.10;9.38;;;4.10;99.90;;;;;;5091604;28;20044;-67
2021/01/21 05:10:08;;;;;;;13.07;8.38;;;4.20;99.90;;;;;;5090778;28;20039;-67
2021/01/21 05:12:35;;;;;;;11.70;8.40;;;4.20;99.90;;;;;;5105120;28;20040;-67
2021/01/21 05:15:04;;;;;;;11.88;7.80;;;4.30;99.90;;;;;;5091025;28;20044;-67
2021/01/21 05:17:32;;;;;;;14.32;8.55;;;4.30;99.90;;;;;;5091164;28;20144;-67
2021/01/21 05:20:01;;;;;;;11.93;8.48;;;4.40;99.90;;;;;;5090788;28;20513;-67
2021/01/21 05:22:27;;;;;;;14.07;8.50;;;4.40;99.90;;;;;;5091334;28;20139;-67
2021/01/21 05:24:54;;;;;;;13.13;8.48;;;4.40;99.90;;;;;;5090518;28;20049;-67
2021/01/21 05:27:22;;;;;;;16.05;9.00;;;4.40;99.90;;;;;;5090482;28;20583;-67
2021/01/21 05:29:50;;;;;;;12.30;7.95;;;4.50;99.90;;;;;;5072183;28;20521;-68
2021/01/21 05:32:18;;;;;;;12.82;8.73;;;4.50;99.90;;;;;;5071783;28;20036;-68
2021/01/21 06:13:18;;;;;;;13.52;8.88;;;4.70;99.90;;;;;;5058375;28;20549;-67
2021/01/21 06:15:45;;;;;;;12.68;8.50;;;4.70;99.90;;;;;;5048781;28;20134;-67
2021/01/21 06:18:12;;;;;;;15.65;8.38;;;4.70;99.90;;;;;;5043613;28;20054;-67
2021/01/21 06:20:38;;;;;;;13.02;7.88;;;4.80;99.90;;;;;;5049312;28;20041;-68
2021/01/21 06:23:10;;;;;;;12.57;8.30;;;4.80;99.90;;;;;;5044366;28;20392;-68
2021/01/21 06:25:39;;;;;;;13.68;7.75;;;4.90;99.90;;;;;;5050585;28;20053;-68
2021/01/21 06:28:08;;;;;;;10.55;7.30;;;4.90;99.90;;;;;;5040185;28;20555;-67
2021/01/21 06:30:36;;;;;;;9.45;6.57;;;4.90;99.90;;;;;;5031846;28;20041;-67
2021/01/21 06:33:05;;;;;;;11.73;8.10;;;5.00;99.90;;;;;;5045855;28;20429;-68
2021/01/21 06:35:39;;;;;;;12.20;7.43;;;5.10;99.90;;;;;;5037638;28;20045;-67
2021/01/21 06:38:19;;;;;;;12.23;8.02;;;5.20;99.90;;;;;;5038450;28;20053;-69
2021/01/21 06:40:50;;;;;;;12.80;7.30;;;5.20;99.90;;;;;;5033784;28;20496;-68
2021/01/21 06:43:28;;;;;;;11.10;6.88;;;5.30;99.90;;;;;;5044666;28;20048;-67
2021/01/21 06:45:58;;;;;;;12.77;7.80;;;5.30;99.90;;;;;;5045694;28;20052;-67
2021/01/21 06:48:25;;;;;;;10.10;6.72;;;5.30;99.90;;;;;;5049626;28;20552;-68
2021/01/21 06:50:53;;;;;;;11.60;6.78;;;5.40;99.90;;;;;;5049949;28;20525;-68
2021/01/21 06:53:20;;;;;;;10.23;6.90;;;5.30;99.90;;;;;;5048958;28;20052;-67
2021/01/21 06:55:48;;;;;;;9.27;6.70;;;5.40;99.90;;;;;;5042910;28;20056;-68
2021/01/21 06:58:44;;;;;;;11.13;6.88;;;5.30;99.90;;;;;;5039609;28;20056;-68
2021/01/21 07:01:36;;;;;;;16.60;7.35;;;5.30;99.90;;;;;;5044852;28;20049;-68
2021/01/21 07:04:09;;;;;;;11.20;6.88;;;5.30;99.90;;;;;;5048144;28;20056;-68
2021/01/21 07:06:56;;;;;;;11.95;7.25;;;5.30;99.90;;;;;;5049170;28;20510;-67
2021/01/21 07:09:25;;;;;;;10.90;7.03;;;5.30;99.90;;;;;;5048666;28;20073;-68
2021/01/21 07:11:56;;;;;;;11.32;6.63;;;5.30;99.90;;;;;;5048260;28;20049;-68
2021/01/21 07:14:31;;;;;;;16.30;6.80;;;5.30;99.90;;;;;;5068704;28;20055;-68
2021/01/21 07:17:01;;;;;;;16.52;7.03;;;5.30;99.90;;;;;;5073519;28;20039;-67
2021/01/21 07:19:31;;;;;;;10.88;6.55;;;5.30;99.90;;;;;;5069544;28;20045;-68
2021/01/21 07:21:58;;;;;;;9.73;6.30;;;5.40;99.90;;;;;;5073097;28;20045;-68
2021/01/21 07:24:27;;;;;;;9.50;6.25;;;5.40;99.90;;;;;;5063581;28;20055;-68
2021/01/21 07:26:55;;;;;;;11.63;7.07;;;5.50;99.90;;;;;;5071998;28;20045;-68
2021/01/21 07:29:21;;;;;;;12.75;6.68;;;5.50;99.90;;;;;;5072958;28;20055;-68
2021/01/21 07:31:59;;;;;;;12.23;6.60;;;5.50;99.90;;;;;;5072252;28;20044;-67
2021/01/21 07:34:45;;;;;;;11.77;6.65;;;5.60;99.90;;;;;;5072622;28;20048;-68
2021/01/21 07:37:19;;;;;;;7.95;5.70;;;5.60;99.90;;;;;;5070601;28;20052;-68
2021/01/21 07:39:54;;;;;;;10.15;6.20;;;5.60;99.90;;;;;;5072060;28;20053;-68
2021/01/21 07:42:41;;;;;;;11.10;6.53;;;5.70;99.90;;;;;;5063980;28;20369;-67
2021/01/21 07:45:19;;;;;;;10.52;6.07;;;5.70;99.90;;;;;;5072710;28;20048;-68
2021/01/21 07:47:47;;;;;;;8.68;5.95;;;5.80;99.90;;;;;;5071598;28;20044;-68
2021/01/21 07:50:21;;;;;;;10.25;6.72;;;5.70;99.90;;;;;;5072655;28;20049;-69
2021/01/21 07:52:55;;;;;;;20.23;6.65;;;5.80;99.90;;;;;;5071993;28;20056;-67
2021/01/21 07:55:38;;;;;;;12.45;6.90;;;5.70;99.90;;;;;;5053485;28;20053;-69
2021/01/21 07:58:22;;;;;;;10.05;6.15;;;5.80;99.90;;;;;;5071149;28;20052;-68
2021/01/21 08:00:51;;;;;;;14.48;6.50;;;5.80;99.90;;;;;;5070543;28;20491;-67
2021/01/21 08:03:29;;;;;;;12.15;5.90;;;5.80;99.90;;;;;;5070139;28;20392;-68
2021/01/21 08:06:17;;;;;;;11.18;6.32;;;5.90;99.90;;;;;;5066436;28;20486;-67
2021/01/21 08:08:46;;;;;;;11.75;5.95;;;6.00;99.90;;;;;;5071362;28;20057;-70
2021/01/21 08:11:17;;;;;;;10.07;5.78;;;6.00;99.90;;;;;;5068816;28;20388;-68
2021/01/21 08:13:46;;;;;;;11.63;5.85;;;6.00;99.90;;;;;;5071373;28;20491;-68
2021/01/21 08:16:14;;;;;;;12.43;6.38;;;6.10;99.90;;;;;;5069906;28;20075;-67
2021/01/21 08:18:42;;;;;;;10.23;5.68;;;6.10;99.90;;;;;;5070975;28;20135;-68
2021/01/21 08:21:24;;;;;;;10.25;5.65;;;6.20;99.90;;;;;;5069934;28;20052;-68
2021/01/21 08:23:55;;;;;;;15.15;6.30;;;6.30;99.90;;;;;;5070673;28;20041;-68
2021/01/21 08:26:22;;;;;;;9.93;5.72;;;6.30;99.90;;;;;;5071843;28;20063;-68
2021/01/21 08:28:49;;;;;;;12.43;6.03;;;6.40;99.90;;;;;;5071805;28;20402;-67
2021/01/21 08:31:16;;;;;;;9.50;6.28;;;6.40;99.90;;;;;;5071352;28;20131;-68
2021/01/21 08:33:44;;;;;;;7.30;5.88;;;6.50;99.90;;;;;;5061144;28;20056;-68
2021/01/21 08:36:12;;;;;;;10.90;5.55;;;6.60;99.90;;;;;;5070946;28;20491;-67
2021/01/21 08:38:42;;;;;;;9.98;5.38;;;6.70;99.90;;;;;;5066448;28;20055;-68
2021/01/21 08:41:15;;;;;;;9.68;5.65;;;6.80;99.90;;;;;;5070761;28;20434;-68
2021/01/21 08:43:45;;;;;;;14.10;5.90;;;6.80;99.90;;;;;;5078469;28;20047;-66
2021/01/21 08:46:20;;;;;;;11.15;5.70;;;6.90;99.90;;;;;;5070237;28;20131;-66
2021/01/21 08:48:51;;;;;;;12.10;5.57;;;7.00;99.90;;;;;;5069331;28;20083;-66
2021/01/21 08:51:44;;;;;;;7.85;5.40;;;7.10;99.90;;;;;;5071055;28;20044;-66
2021/01/21 08:54:18;;;;;;;9.15;5.65;;;7.10;99.90;;;;;;5069292;28;20055;-66
2021/01/21 08:57:14;;;;;;;13.68;5.97;;;7.30;99.90;;;;;;5071516;28;20079;-66
2021/01/21 08:59:42;;;;;;;10.05;5.65;;;7.40;99.90;;;;;;5068137;28;20052;-66
2021/01/21 09:02:12;;;;;;;10.68;5.18;;;7.50;99.90;;;;;;5068247;28;20487;-67
2021/01/21 09:04:39;;;;;;;14.00;6.07;;;7.60;99.90;;;;;;5069196;28;20131;-67
2021/01/21 09:07:08;;;;;;;11.35;6.00;;;7.70;99.90;;;;;;5069671;28;20106;-67
2021/01/21 09:09:36;;;;;;;13.23;5.80;;;7.80;99.90;;;;;;5070090;28;20495;-67
2021/01/21 09:12:23;;;;;;;7.30;5.10;;;7.80;99.90;;;;;;5070554;28;20040;-66
2021/01/21 09:15:05;;;;;;;11.68;5.63;;;7.90;99.90;;;;;;5069685;28;20055;-67
2021/01/21 09:17:32;;;;;;;10.30;5.55;;;7.80;99.90;;;;;;5052521;28;20535;-66
2021/01/21 09:20:01;;;;;;;15.45;5.75;;;7.80;99.90;;;;;;5069626;28;20106;-66
2021/01/21 09:22:39;;;;;;;7.47;4.88;;;7.90;99.90;;;;;;5070377;28;20055;-67
2021/01/21 09:25:08;;;;;;;10.02;5.25;;;7.90;99.90;;;;;;5068836;28;20041;-67
2021/01/21 09:27:36;;;;;;;7.18;5.25;;;8.00;99.90;;;;;;5070712;28;20410;-68
2021/01/21 09:30:06;;;;;;;8.65;5.20;;;8.00;99.90;;;;;;5070596;28;20491;-67
2021/01/21 09:32:37;;;;;;;12.60;5.00;;;8.00;99.90;;;;;;5049472;28;20053;-67
2021/01/21 09:35:30;;;;;;;12.55;5.38;;;8.00;99.90;;;;;;5063869;28;20062;-66
2021/01/21 09:37:59;;;;;;;8.02;5.05;;;7.90;99.90;;;;;;5059113;28;20052;-66
2021/01/21 09:40:35;;;;;;;9.10;5.45;;;7.90;99.90;;;;;;5070320;28;20056;-67
2021/01/21 09:43:04;;;;;;;9.18;5.57;;;7.80;99.90;;;;;;5071863;28;20090;-67
2021/01/21 09:45:32;;;;;;;11.40;5.30;;;7.80;99.90;;;;;;5077667;28;20176;-66
2021/01/21 09:47:59;;;;;;;10.07;5.32;;;8.00;99.90;;;;;;5069430;28;20082;-67
2021/01/21 09:50:27;;;;;;;9.10;5.60;;;8.10;99.90;;;;;;5062310;28;20049;-67
2021/01/21 09:52:53;;;;;;;14.00;5.82;;;8.20;99.90;;;;;;5069160;28;20056;-66
2021/01/21 09:55:20;;;;;;;8.77;5.05;;;8.40;99.90;;;;;;5051201;28;20139;-66
2021/01/21 09:57:47;;;;;;;16.17;6.82;;;8.50;99.90;;;;;;5069597;28;20059;-66
2021/01/21 10:00:14;;;;;;;15.70;6.88;;;8.60;99.90;;;;;;5070898;28;20056;-66
2021/01/21 10:02:41;;;;;;;20.20;5.95;;;8.70;99.90;;;;;;5065287;28;20055;-66
2021/01/21 10:05:09;;;;;;;7.90;5.35;;;8.70;99.90;;;;;;5056914;28;20454;-67
2021/01/21 10:07:37;;;;;;;8.43;5.18;;;8.80;99.90;;;;;;5068949;28;20048;-67
2021/01/21 10:10:05;;;;;;;12.55;6.15;;;9.10;99.90;;;;;;5069292;28;20090;-67
2021/01/21 10:12:31;;;;;;;12.75;5.95;;;9.40;99.90;;;;;;5069792;28;20410;-67
2021/01/21 10:14:58;;;;;;;7.53;5.55;;;9.60;99.90;;;;;;5070537;28;20143;-66
2021/01/21 10:17:26;;;;;;;7.63;5.57;;;9.90;99.90;;;;;;5069969;28;20051;-66
2021/01/21 10:19:53;;;;;;;7.28;5.13;;;10.20;99.90;;;;;;5056654;28;20141;-66
2021/01/21 10:22:19;;;;;;;8.27;5.60;;;10.40;99.90;;;;;;5070015;28;20052;-66
2021/01/21 10:24:47;;;;;;;7.88;5.68;;;10.70;99.90;;;;;;5058392;28;20049;-66
2021/01/21 10:27:14;;;;;;;8.73;6.15;;;10.90;99.90;;;;;;5062918;28;20155;-66
2021/01/21 10:29:40;;;;;;;14.10;8.27;;;11.20;99.90;;;;;;5069047;28;20438;-67
2021/01/21 10:32:15;;;;;;;10.23;5.88;;;11.30;99.90;;;;;;5070387;28;20037;-67
2021/01/21 10:34:42;;;;;;;8.07;5.45;;;11.50;99.90;;;;;;5070008;28;20168;-67
2021/01/21 10:37:08;;;;;;;9.25;5.68;;;11.60;99.90;;;;;;5069802;28;20475;-67
2021/01/21 10:39:44;;;;;;;7.63;5.70;;;11.70;99.90;;;;;;5052517;28;20495;-67
2021/01/21 10:42:11;;;;;;;8.63;5.30;;;11.90;99.90;;;;;;5068224;28;20453;-67
2021/01/21 10:44:37;;;;;;;7.70;5.80;;;12.00;99.90;;;;;;5082892;28;20391;-68
2021/01/21 10:47:03;;;;;;;6.30;5.70;;;12.20;99.90;;;;;;5073186;28;20578;-67
2021/01/21 10:49:30;;;;;;;9.95;5.85;;;12.40;99.90;;;;;;5073950;28;20041;-67
2021/01/21 10:51:58;;;;;;;10.10;6.25;;;12.50;99.90;;;;;;5046527;28;20048;-67
2021/01/21 10:54:26;;;;;;;8.35;6.20;;;12.50;99.90;;;;;;5069614;28;20052;-67
2021/01/21 10:56:53;;;;;;;9.90;6.30;;;12.50;99.90;;;;;;5072526;28;20048;-67
2021/01/21 10:59:20;;;;;;;7.70;5.70;;;12.60;99.90;;;;;;5071315;28;20507;-67
2021/01/21 11:01:46;;;;;;;7.70;5.63;;;12.40;99.90;;;;;;5072771;28;20083;-66
2021/01/21 11:04:13;;;;;;;8.80;5.80;;;12.20;99.90;;;;;;5071641;28;20492;-67
2021/01/21 11:06:40;;;;;;;6.00;5.40;;;12.30;99.90;;;;;;5070963;28;20478;-68
2021/01/21 11:09:06;;;;;;;10.85;5.68;;;12.50;99.90;;;;;;5072250;28;20118;-67
2021/01/21 11:11:33;;;;;;;6.75;6.00;;;12.50;99.90;;;;;;5072296;28;20052;-67
2021/01/21 11:14:00;;;;;;;8.38;6.03;;;12.40;99.90;;;;;;5072109;28;20102;-68
2021/01/21 11:16:27;;;;;;;7.85;5.70;;;12.50;99.90;;;;;;5070608;28;20063;-67
2021/01/21 11:18:54;;;;;;;7.80;5.40;;;12.50;99.90;;;;;;5060047;28;20403;-67
2021/01/21 11:21:21;;;;;;;8.50;5.47;;;12.40;99.90;;;;;;5073007;28;20132;-68
2021/01/21 11:23:47;;;;;;;4.90;4.50;;;12.60;99.90;;;;;;5054702;28;20048;-68
2021/01/21 11:26:14;;;;;;;11.60;4.93;;;12.80;99.90;;;;;;5072687;28;20060;-69
2021/01/21 11:28:40;;;;;;;6.90;4.70;;;13.30;99.90;;;;;;5072150;28;20483;-68
2021/01/21 11:31:06;;;;;;;6.75;5.30;;;14.40;99.90;;;;;;5070450;28;20050;-68
2021/01/21 11:33:33;;;;;;;5.18;4.68;;;15.80;99.90;;;;;;5070518;28;20101;-67
2021/01/21 11:36:07;;;;;;;8.45;4.70;;;16.60;99.60;;;;;;5070891;28;20127;-69
2021/01/21 11:38:33;;;;;;;5.53;5.00;;;17.40;97.90;;;;;;5072917;28;20064;-68
2021/01/21 11:41:02;;;;;;;5.53;5.00;;;17.80;97.00;;;;;;5060525;28;20435;-68
2021/01/21 11:43:29;;;;;;;5.68;5.03;;;18.00;94.70;;;;;;5080578;28;20055;-68
2021/01/21 11:45:55;;;;;;;6.18;5.50;;;17.40;95.00;;;;;;5076698;28;20049;-66
2021/01/21 11:48:23;;;;;;;5.95;5.40;;;16.40;95.40;;;;;;5071947;28;20040;-69
2021/01/21 11:50:49;;;;;;;5.72;4.97;;;15.60;96.40;;;;;;5072086;28;20049;-67
2021/01/21 11:53:15;;;;;;;6.18;5.22;;;15.20;97.50;;;;;;5070490;28;20040;-69
2021/01/21 11:55:42;;;;;;;10.00;6.30;;;14.90;98.00;;;;;;5071513;28;20044;-67
2021/01/21 11:58:08;;;;;;;5.95;5.35;;;15.30;98.20;;;;;;5070131;28;20044;-67
2021/01/21 12:00:35;;;;;;;8.23;5.57;;;15.10;97.90;;;;;;5072851;28;20052;-67
2021/01/21 12:03:01;;;;;;;8.88;5.82;;;14.60;98.40;;;;;;5070498;28;20052;-67
2021/01/21 12:05:28;;;;;;;5.80;5.30;;;14.20;99.10;;;;;;5072528;28;20047;-66
2021/01/21 12:07:55;;;;;;;7.28;5.20;;;13.70;99.70;;;;;;5071079;28;20045;-67
2021/01/21 12:10:21;;;;;;;5.60;5.10;;;13.60;99.90;;;;;;5085821;28;20135;-67
2021/01/21 12:12:48;;;;;;;6.05;5.45;;;13.50;99.90;;;;;;5071376;28;20044;-68
2021/01/21 12:15:15;;;;;;;9.35;5.32;;;13.40;99.90;;;;;;5071389;28;20438;-68
2021/01/21 12:17:42;;;;;;;5.95;5.30;;;13.20;99.90;;;;;;5071682;28;20048;-69
2021/01/21 12:20:10;;;;;;;5.40;4.90;;;13.10;99.90;;;;;;5052859;28;20144;-69
2021/01/21 12:22:37;;;;;;;6.13;5.38;;;13.20;99.90;;;;;;5053907;28;20411;-69
2021/01/21 12:25:05;;;;;;;6.50;5.65;;;13.20;99.90;;;;;;5071115;28;20075;-66
2021/01/21 12:27:31;;;;;;;8.80;5.80;;;13.20;99.90;;;;;;5070741;28;20066;-68
2021/01/21 12:29:58;;;;;;;6.43;5.50;;;13.00;99.90;;;;;;5057101;28;20049;-69
2021/01/21 12:32:29;;;;;;;7.85;5.38;;;13.10;99.90;;;;;;5070596;28;20453;-68
2021/01/21 12:34:56;;;;;;;6.05;5.55;;;13.20;99.90;;;;;;5071107;28;20053;-67
2021/01/21 12:37:22;;;;;;;5.78;5.22;;;13.20;99.90;;;;;;5071408;28;20063;-67
2021/01/21 12:39:48;;;;;;;5.40;4.90;;;13.20;99.90;;;;;;5072180;28;20048;-67
2021/01/21 12:42:17;;;;;;;5.40;4.78;;;13.10;99.90;;;;;;5070185;28;20135;-69
2021/01/21 12:44:43;;;;;;;5.28;4.80;;;13.20;99.90;;;;;;5083620;28;20049;-67
2021/01/21 12:47:10;;;;;;;6.47;4.80;;;13.20;99.90;;;;;;5071131;28;20052;-68
2021/01/21 12:49:37;;;;;;;5.30;4.80;;;13.20;99.90;;;;;;5070783;28;20139;-68
2021/01/21 12:52:08;;;;;;;5.50;5.00;;;13.00;99.90;;;;;;5071344;28;20121;-68
2021/01/21 12:54:36;;;;;;;5.68;5.03;;;12.90;99.90;;;;;;5069426;28;20075;-68
2021/01/21 12:57:05;;;;;;;5.93;5.38;;;12.70;99.90;;;;;;5071250;28;20099;-68
2021/01/21 12:59:32;;;;;;;5.30;4.80;;;12.60;99.90;;;;;;5070993;28;20055;-67
2021/01/21 13:01:58;;;;;;;5.45;4.95;;;12.60;99.90;;;;;;5070753;28;20060;-68
2021/01/21 13:04:25;;;;;;;5.28;4.80;;;12.80;99.90;;;;;;5059805;28;20071;-67
2021/01/21 13:06:51;;;;;;;5.35;4.85;;;13.30;99.90;;;;;;5052696;28;20127;-69
2021/01/21 13:09:18;;;;;;;6.32;4.90;;;13.80;99.90;;;;;;5069630;28;20044;-68
2021/01/21 13:11:44;;;;;;;5.28;4.80;;;13.80;99.90;;;;;;5071418;28;20482;-68
2021/01/21 13:14:12;;;;;;;5.60;4.88;;;13.60;99.90;;;;;;5064355;28;20051;-67
2021/01/21 13:16:40;;;;;;;5.72;5.22;;;13.40;99.90;;;;;;5070702;28;20044;-67
2021/01/21 13:19:06;;;;;;;5.47;4.90;;;13.10;99.90;;;;;;5070137;28;20044;-68
2021/01/21 13:21:32;;;;;;;5.60;5.10;;;13.00;99.90;;;;;;5069220;28;20249;-68
2021/01/21 13:23:59;;;;;;;6.43;4.78;;;12.90;99.90;;;;;;5061068;28;20044;-67
2021/01/21 13:26:29;;;;;;;5.72;5.10;;;12.90;99.90;;;;;;5069896;28;20040;-69
2021/01/21 13:29:01;;;;;;;5.35;4.85;;;12.80;99.90;;;;;;5069726;28;20505;-68
2021/01/21 13:31:30;;;;;;;5.45;4.68;;;12.90;99.90;;;;;;5070483;28;20143;-68
2021/01/21 13:33:57;;;;;;;8.77;5.95;;;12.90;99.90;;;;;;5069419;28;20052;-68